createdAt,value
2019-04-01T00:00:31.481Z,0.00
2019-04-01T00:01:31.486Z,0.00
2019-04-01T00:02:31.502Z,0.00
2019-04-01T00:03:31.511Z,0.00
2019-04-01T00:04:31.523Z,0.00
2019-04-01T00:05:31.535Z,0.00
2019-04-01T00:06:31.559Z,0.00
2019-04-01T00:07:31.559Z,0.00
2019-04-01T00:08:31.571Z,0.00
2019-04-01T00:09:31.586Z,0.00
2019-04-01T00:10:31.593Z,0.00
2019-04-01T00:11:31.606Z,0.00
2019-04-01T00:12:31.620Z,0.00
2019-04-01T00:13:31.630Z,0.00
2019-04-01T00:14:31.643Z,0.00
2019-04-01T00:15:31.655Z,0.00
2019-04-01T00:16:31.667Z,0.00
2019-04-01T00:17:31.677Z,0.00
2019-04-01T00:18:31.690Z,0.00
2019-04-01T00:19:31.702Z,0.00
2019-04-01T00:20:31.716Z,0.00
2019-04-01T00:21:31.724Z,0.00
2019-04-01T00:22:31.774Z,0.00
2019-04-01T00:23:31.747Z,0.00
2019-04-01T00:24:31.759Z,0.00
2019-04-01T00:25:31.771Z,0.00
2019-04-01T00:26:31.785Z,0.00
2019-04-01T00:27:31.796Z,0.00
2019-04-01T00:28:31.806Z,0.00
2019-04-01T00:29:31.820Z,0.00
2019-04-01T00:30:31.829Z,0.00
2019-04-01T00:31:31.842Z,0.00
2019-04-01T00:32:31.856Z,0.00
2019-04-01T00:33:31.861Z,0.00
2019-04-01T00:34:31.877Z,0.00
2019-04-01T00:35:31.888Z,0.00
2019-04-01T00:36:31.904Z,0.00
2019-04-01T00:37:31.911Z,0.00
2019-04-01T00:38:31.923Z,0.00
2019-04-01T00:39:31.934Z,0.00
2019-04-01T00:40:31.945Z,0.00
2019-04-01T00:41:31.957Z,0.00
2019-04-01T00:42:31.969Z,0.00
2019-04-01T00:43:31.980Z,0.00
2019-04-01T00:44:31.991Z,0.00
2019-04-01T00:45:32.005Z,0.00
2019-04-01T00:46:32.018Z,0.00
2019-04-01T00:47:32.027Z,0.00
2019-04-01T00:48:32.039Z,0.00
2019-04-01T00:49:32.051Z,0.00
2019-04-01T00:50:32.062Z,0.00
2019-04-01T00:51:32.070Z,0.00
2019-04-01T00:52:32.085Z,0.00
2019-04-01T00:53:32.094Z,0.00
2019-04-01T00:54:32.107Z,0.00
2019-04-01T00:55:32.119Z,0.00
2019-04-01T00:56:32.136Z,0.00
2019-04-01T00:57:32.142Z,0.00
2019-04-01T00:58:32.152Z,0.00
2019-04-01T00:59:32.164Z,0.00
2019-04-01T01:00:32.179Z,0.00
2019-04-01T01:01:32.186Z,0.00
2019-04-01T01:02:32.196Z,0.00
2019-04-01T01:03:32.211Z,0.00
2019-04-01T01:04:32.222Z,0.00
2019-04-01T01:05:32.233Z,0.00
2019-04-01T01:06:32.245Z,0.00
2019-04-01T01:07:32.256Z,0.00
2019-04-01T01:08:32.266Z,0.00
2019-04-01T01:09:32.278Z,0.00
2019-04-01T01:10:32.288Z,0.00
2019-04-01T01:11:32.300Z,0.00
2019-04-01T01:12:32.313Z,0.00
2019-04-01T01:13:32.323Z,0.00
2019-04-01T01:14:32.335Z,0.00
2019-04-01T01:15:32.346Z,0.00
2019-04-01T01:16:32.357Z,0.00
2019-04-01T01:17:32.368Z,0.00
2019-04-01T01:18:32.380Z,0.00
2019-04-01T01:19:32.390Z,0.00
2019-04-01T01:20:32.410Z,0.00
2019-04-01T01:21:32.419Z,0.00
2019-04-01T01:22:32.424Z,0.00
2019-04-01T01:23:32.438Z,0.00
2019-04-01T01:24:32.683Z,0.00
2019-04-01T01:25:32.460Z,0.00
2019-04-01T01:26:32.476Z,0.00
2019-04-01T01:27:32.481Z,0.00
2019-04-01T01:28:32.510Z,0.00
2019-04-01T01:29:32.586Z,0.00
2019-04-01T01:30:32.585Z,0.00
2019-04-01T01:31:32.582Z,0.00
2019-04-01T01:32:32.575Z,0.00
2019-04-01T01:33:32.575Z,0.00
2019-04-01T01:34:32.598Z,0.00
2019-04-01T01:35:32.632Z,0.00
2019-04-01T01:36:32.655Z,0.00
2019-04-01T01:37:32.636Z,0.00
2019-04-01T01:38:32.690Z,0.00
2019-04-01T01:39:32.633Z,0.00
2019-04-01T01:40:32.634Z,0.00
2019-04-01T01:41:32.638Z,0.00
2019-04-01T01:42:32.651Z,0.00
2019-04-01T01:43:32.663Z,0.00
2019-04-01T01:44:32.672Z,0.00
2019-04-01T01:45:32.687Z,0.00
2019-04-01T01:46:32.698Z,0.00
2019-04-01T01:47:32.709Z,0.00
2019-04-01T01:48:32.718Z,0.00
2019-04-01T01:49:32.734Z,0.00
2019-04-01T01:50:32.738Z,0.00
2019-04-01T01:51:32.750Z,0.00
2019-04-01T01:52:32.760Z,0.00
2019-04-01T01:53:32.771Z,0.00
2019-04-01T01:54:32.783Z,0.00
2019-04-01T01:55:32.793Z,0.00
2019-04-01T01:56:32.806Z,0.00
2019-04-01T01:57:32.817Z,0.00
2019-04-01T01:58:32.829Z,0.00
2019-04-01T01:59:32.840Z,0.00
2019-04-01T02:00:32.851Z,0.00
2019-04-01T02:01:32.861Z,0.00
2019-04-01T02:02:32.871Z,0.00
2019-04-01T02:03:32.882Z,0.00
2019-04-01T02:04:32.895Z,0.00
2019-04-01T02:05:32.904Z,0.00
2019-04-01T02:06:32.916Z,0.00
2019-04-01T02:07:32.927Z,0.00
2019-04-01T02:08:32.938Z,0.00
2019-04-01T02:09:32.949Z,0.00
2019-04-01T02:10:32.961Z,0.00
2019-04-01T02:11:32.972Z,0.00
2019-04-01T02:12:32.984Z,0.00
2019-04-01T02:13:32.994Z,0.00
2019-04-01T02:14:33.006Z,0.00
2019-04-01T02:15:33.017Z,0.00
2019-04-01T02:16:33.032Z,0.00
2019-04-01T02:17:33.038Z,0.00
2019-04-01T02:18:33.048Z,0.00
2019-04-01T02:19:33.060Z,0.00
2019-04-01T02:20:33.070Z,0.00
2019-04-01T02:21:33.079Z,0.00
2019-04-01T02:22:33.093Z,0.00
2019-04-01T02:23:33.105Z,0.00
2019-04-01T02:24:33.116Z,0.00
2019-04-01T02:25:33.125Z,0.00
2019-04-01T02:26:33.136Z,0.00
2019-04-01T02:27:33.148Z,0.00
2019-04-01T02:28:33.161Z,0.00
2019-04-01T02:29:33.170Z,0.00
2019-04-01T02:30:33.181Z,0.00
2019-04-01T02:31:33.194Z,0.00
2019-04-01T02:32:33.203Z,0.00
2019-04-01T02:33:33.212Z,0.00
2019-04-01T02:34:33.223Z,0.00
2019-04-01T02:35:33.239Z,0.00
2019-04-01T02:36:33.244Z,0.00
2019-04-01T02:37:33.267Z,0.00
2019-04-01T02:38:33.269Z,0.00
2019-04-01T02:39:33.285Z,0.00
2019-04-01T02:40:33.289Z,0.00
2019-04-01T02:41:33.300Z,0.00
2019-04-01T02:42:33.311Z,0.00
2019-04-01T02:43:33.325Z,0.00
2019-04-01T02:44:33.335Z,0.00
2019-04-01T02:45:33.343Z,0.00
2019-04-01T02:46:33.353Z,0.00
2019-04-01T02:47:33.447Z,0.00
2019-04-01T02:48:33.374Z,0.00
2019-04-01T02:49:33.387Z,0.00
2019-04-01T02:50:33.397Z,0.00
2019-04-01T02:51:33.413Z,0.00
2019-04-01T02:52:33.418Z,0.00
2019-04-01T02:53:33.428Z,0.00
2019-04-01T02:54:33.441Z,0.00
2019-04-01T02:55:33.450Z,0.00
2019-04-01T02:56:33.473Z,0.00
2019-04-01T02:57:33.472Z,0.00
2019-04-01T02:58:33.483Z,0.00
2019-04-01T02:59:33.513Z,0.00
2019-04-01T03:00:33.510Z,0.00
2019-04-01T03:01:33.590Z,0.00
2019-04-01T03:02:33.664Z,0.00
2019-04-01T03:03:33.538Z,0.00
2019-04-01T03:04:33.553Z,0.00
2019-04-01T03:05:33.561Z,0.00
2019-04-01T03:06:33.567Z,0.00
2019-04-01T03:07:33.578Z,0.00
2019-04-01T03:08:33.591Z,0.00
2019-04-01T03:09:33.604Z,0.00
2019-04-01T03:10:33.615Z,0.00
2019-04-01T03:11:33.622Z,0.00
2019-04-01T03:12:33.634Z,0.00
2019-04-01T03:13:33.641Z,0.00
2019-04-01T03:14:33.653Z,0.00
2019-04-01T03:15:33.672Z,0.00
2019-04-01T03:16:33.676Z,0.00
2019-04-01T03:17:33.684Z,0.00
2019-04-01T03:18:33.696Z,0.00
2019-04-01T03:19:33.707Z,0.00
2019-04-01T03:20:33.721Z,0.00
2019-04-01T03:21:33.727Z,0.00
2019-04-01T03:22:33.739Z,0.00
2019-04-01T03:23:33.749Z,0.00
2019-04-01T03:24:33.759Z,0.00
2019-04-01T03:25:33.766Z,0.00
2019-04-01T03:26:33.780Z,0.00
2019-04-01T03:27:33.794Z,0.00
2019-04-01T03:28:33.803Z,0.00
2019-04-01T03:29:33.809Z,0.00
2019-04-01T03:30:33.823Z,0.00
2019-04-01T03:31:33.833Z,0.00
2019-04-01T03:32:33.844Z,0.00
2019-04-01T03:33:33.863Z,0.00
2019-04-01T03:34:33.866Z,0.00
2019-04-01T03:35:33.873Z,0.00
2019-04-01T03:36:33.888Z,0.00
2019-04-01T03:37:33.905Z,0.00
2019-04-01T03:38:33.930Z,0.00
2019-04-01T03:39:33.922Z,0.00
2019-04-01T03:40:33.936Z,0.00
2019-04-01T03:41:33.948Z,0.00
2019-04-01T03:42:33.948Z,0.00
2019-04-01T03:43:33.956Z,0.00
2019-04-01T03:44:33.969Z,0.00
2019-04-01T03:45:33.978Z,0.00
2019-04-01T03:46:33.987Z,0.00
2019-04-01T03:47:33.997Z,0.00
2019-04-01T03:48:34.009Z,0.00
2019-04-01T03:49:34.017Z,0.00
2019-04-01T03:50:34.030Z,0.00
2019-04-01T03:51:34.038Z,0.00
2019-04-01T03:52:34.048Z,0.00
2019-04-01T03:53:34.069Z,0.00
2019-04-01T03:54:34.069Z,0.00
2019-04-01T03:55:34.082Z,0.00
2019-04-01T03:56:34.091Z,0.00
2019-04-01T03:57:34.104Z,0.00
2019-04-01T03:58:34.111Z,0.00
2019-04-01T03:59:34.124Z,0.00
2019-04-01T04:00:34.131Z,0.00
2019-04-01T04:01:34.140Z,0.00
2019-04-01T04:02:34.151Z,0.00
2019-04-01T04:03:34.162Z,0.00
2019-04-01T04:04:34.187Z,0.00
2019-04-01T04:05:34.182Z,0.00
2019-04-01T04:06:34.200Z,0.00
2019-04-01T04:07:34.201Z,0.00
2019-04-01T04:08:34.222Z,0.00
2019-04-01T04:09:34.219Z,0.00
2019-04-01T04:10:34.233Z,0.00
2019-04-01T04:11:34.246Z,0.00
2019-04-01T04:12:34.330Z,0.00
2019-04-01T04:13:34.267Z,0.00
2019-04-01T04:14:34.271Z,0.00
2019-04-01T04:15:34.293Z,0.00
2019-04-01T04:16:34.375Z,0.00
2019-04-01T04:17:34.371Z,0.00
2019-04-01T04:18:34.378Z,0.00
2019-04-01T04:19:34.387Z,0.00
2019-04-01T04:20:34.378Z,0.00
2019-04-01T04:21:34.387Z,0.00
2019-04-01T04:22:34.434Z,0.00
2019-04-01T04:23:34.434Z,0.00
2019-04-01T04:24:34.442Z,0.00
2019-04-01T04:25:34.439Z,0.00
2019-04-01T04:26:34.437Z,0.00
2019-04-01T04:27:34.425Z,0.00
2019-04-01T04:28:34.455Z,0.00
2019-04-01T04:29:34.441Z,0.00
2019-04-01T04:30:34.431Z,0.00
2019-04-01T04:31:34.446Z,0.00
2019-04-01T04:32:34.459Z,5.63
2019-04-01T04:33:34.464Z,5.63
2019-04-01T04:34:34.583Z,5.63
2019-04-01T04:35:34.487Z,5.63
2019-04-01T04:36:34.499Z,5.63
2019-04-01T04:37:34.506Z,5.63
2019-04-01T04:38:34.525Z,5.63
2019-04-01T04:39:34.527Z,11.25
2019-04-01T04:40:34.535Z,11.25
2019-04-01T04:41:34.543Z,11.25
2019-04-01T04:42:34.554Z,11.25
2019-04-01T04:43:34.564Z,16.88
2019-04-01T04:44:34.581Z,16.88
2019-04-01T04:45:34.585Z,16.88
2019-04-01T04:46:34.596Z,16.88
2019-04-01T04:47:34.605Z,22.50
2019-04-01T04:48:34.616Z,22.50
2019-04-01T04:49:34.628Z,22.50
2019-04-01T04:50:34.636Z,22.50
2019-04-01T04:51:34.646Z,28.13
2019-04-01T04:52:34.661Z,28.13
2019-04-01T04:53:34.661Z,28.13
2019-04-01T04:54:34.674Z,33.75
2019-04-01T04:55:34.684Z,33.75
2019-04-01T04:56:34.704Z,33.75
2019-04-01T04:57:34.704Z,39.38
2019-04-01T04:58:34.714Z,39.38
2019-04-01T04:59:34.727Z,39.38
2019-04-01T05:00:34.733Z,45.00
2019-04-01T05:01:34.744Z,45.00
2019-04-01T05:02:34.755Z,45.00
2019-04-01T05:03:34.767Z,50.63
2019-04-01T05:04:34.775Z,50.63
2019-04-01T05:05:34.785Z,56.25
2019-04-01T05:06:34.797Z,56.25
2019-04-01T05:07:34.805Z,56.25
2019-04-01T05:08:34.816Z,61.88
2019-04-01T05:09:34.828Z,61.88
2019-04-01T05:10:34.833Z,61.88
2019-04-01T05:11:34.845Z,67.50
2019-04-01T05:12:34.854Z,67.50
2019-04-01T05:13:37.841Z,67.50
2019-04-01T05:14:34.875Z,73.13
2019-04-01T05:15:34.886Z,73.13
2019-04-01T05:16:34.895Z,73.13
2019-04-01T05:17:34.904Z,78.75
2019-04-01T05:18:34.916Z,78.75
2019-04-01T05:19:34.926Z,78.75
2019-04-01T05:20:34.937Z,84.38
2019-04-01T05:21:34.944Z,84.38
2019-04-01T05:22:34.955Z,84.38
2019-04-01T05:23:34.967Z,90.00
2019-04-01T05:24:34.976Z,90.00
2019-04-01T05:25:34.986Z,90.00
2019-04-01T05:26:34.998Z,95.63
2019-04-01T05:27:35.006Z,95.63
2019-04-01T05:28:35.017Z,95.63
2019-04-01T05:29:35.027Z,101.25
2019-04-01T05:30:35.036Z,101.25
2019-04-01T05:31:35.049Z,101.25
2019-04-01T05:32:35.060Z,106.88
2019-04-01T05:33:35.068Z,106.88
2019-04-01T05:34:35.077Z,106.88
2019-04-01T05:35:35.088Z,106.88
2019-04-01T05:36:35.100Z,112.50
2019-04-01T05:37:35.111Z,112.50
2019-04-01T05:38:35.120Z,112.50
2019-04-01T05:39:35.129Z,118.13
2019-04-01T05:40:35.139Z,118.13
2019-04-01T05:41:35.151Z,118.13
2019-04-01T05:42:35.160Z,118.13
2019-04-01T05:43:35.249Z,123.75
2019-04-01T05:44:35.183Z,123.75
2019-04-01T05:45:35.192Z,123.75
2019-04-01T05:46:35.206Z,129.38
2019-04-01T05:47:35.213Z,129.38
2019-04-01T05:48:35.224Z,129.38
2019-04-01T05:49:35.235Z,129.38
2019-04-01T05:50:35.244Z,135.00
2019-04-01T05:51:35.257Z,135.00
2019-04-01T05:52:35.267Z,135.00
2019-04-01T05:53:35.275Z,135.00
2019-04-01T05:54:35.286Z,140.63
2019-04-01T05:55:35.298Z,140.63
2019-04-01T05:56:35.308Z,140.63
2019-04-01T05:57:35.318Z,140.63
2019-04-01T05:58:35.330Z,146.25
2019-04-01T05:59:35.342Z,146.25
2019-04-01T06:00:35.352Z,146.25
2019-04-01T06:01:35.362Z,146.25
2019-04-01T06:02:35.373Z,151.88
2019-04-01T06:03:35.385Z,151.88
2019-04-01T06:04:35.396Z,151.88
2019-04-01T06:05:35.405Z,157.50
2019-04-01T06:06:35.418Z,157.50
2019-04-01T06:07:35.427Z,157.50
2019-04-01T06:08:35.440Z,157.50
2019-04-01T06:09:35.447Z,163.13
2019-04-01T06:10:35.461Z,163.13
2019-04-01T06:11:35.470Z,163.13
2019-04-01T06:12:35.482Z,163.13
2019-04-01T06:13:35.492Z,168.75
2019-04-01T06:14:35.506Z,168.75
2019-04-01T06:15:35.514Z,168.75
2019-04-01T06:16:35.527Z,168.75
2019-04-01T06:17:35.536Z,168.75
2019-04-01T06:18:35.547Z,168.75
2019-04-01T06:19:35.561Z,174.38
2019-04-01T06:20:35.571Z,174.38
2019-04-01T06:21:35.580Z,174.38
2019-04-01T06:22:35.606Z,174.38
2019-04-01T06:23:35.604Z,180.00
2019-04-01T06:24:35.615Z,180.00
2019-04-01T06:25:35.626Z,180.00
2019-04-01T06:26:35.637Z,185.63
2019-04-01T06:27:35.650Z,185.63
2019-04-01T06:28:35.662Z,196.88
2019-04-01T06:29:35.672Z,213.75
2019-04-01T06:30:35.681Z,213.75
2019-04-01T06:31:35.695Z,196.88
2019-04-01T06:32:35.706Z,191.25
2019-04-01T06:33:35.716Z,191.25
2019-04-01T06:34:35.727Z,191.25
2019-04-01T06:35:35.741Z,191.25
2019-04-01T06:36:38.710Z,191.25
2019-04-01T06:37:35.762Z,191.25
2019-04-01T06:38:35.775Z,196.88
2019-04-01T06:39:35.794Z,202.50
2019-04-01T06:40:35.799Z,196.88
2019-04-01T06:41:35.811Z,196.88
2019-04-01T06:42:35.822Z,196.88
2019-04-01T06:43:35.834Z,196.88
2019-04-01T06:44:35.847Z,196.88
2019-04-01T06:45:35.856Z,202.50
2019-04-01T06:46:35.943Z,213.75
2019-04-01T06:47:35.882Z,225.00
2019-04-01T06:48:35.893Z,208.13
2019-04-01T06:49:35.909Z,213.75
2019-04-01T06:50:35.921Z,213.75
2019-04-01T06:51:35.931Z,208.13
2019-04-01T06:52:35.943Z,213.75
2019-04-01T06:53:35.953Z,208.13
2019-04-01T06:54:35.966Z,208.13
2019-04-01T06:55:35.988Z,208.13
2019-04-01T06:56:35.992Z,225.00
2019-04-01T06:57:36.002Z,253.13
2019-04-01T06:58:36.023Z,427.50
2019-04-01T06:59:36.026Z,478.13
2019-04-01T07:00:36.041Z,438.75
2019-04-01T07:01:36.051Z,590.63
2019-04-01T07:02:36.064Z,748.13
2019-04-01T07:03:36.165Z,765.00
2019-04-01T07:04:36.170Z,697.50
2019-04-01T07:05:36.167Z,573.75
2019-04-01T07:06:36.170Z,579.38
2019-04-01T07:07:36.196Z,635.63
2019-04-01T07:08:36.173Z,697.50
2019-04-01T07:09:36.187Z,607.50
2019-04-01T07:10:36.244Z,433.13
2019-04-01T07:11:36.344Z,427.50
2019-04-01T07:12:36.218Z,540.00
2019-04-01T07:13:39.715Z,596.25
2019-04-01T07:14:36.219Z,714.38
2019-04-01T07:15:36.232Z,652.50
2019-04-01T07:16:39.710Z,652.50
2019-04-01T07:17:36.259Z,765.00
2019-04-01T07:18:36.270Z,1001.25
2019-04-01T07:19:36.283Z,1113.75
2019-04-01T07:20:36.297Z,916.88
2019-04-01T07:21:36.310Z,843.75
2019-04-01T07:22:36.325Z,720.00
2019-04-01T07:23:36.339Z,540.00
2019-04-01T07:24:36.354Z,579.38
2019-04-01T07:25:36.366Z,798.75
2019-04-01T07:26:36.379Z,950.63
2019-04-01T07:27:36.397Z,905.63
2019-04-01T07:28:36.410Z,798.75
2019-04-01T07:29:36.421Z,607.50
2019-04-01T07:30:36.437Z,601.88
2019-04-01T07:31:36.450Z,663.75
2019-04-01T07:32:36.464Z,669.38
2019-04-01T07:33:36.493Z,675.00
2019-04-01T07:34:36.499Z,669.38
2019-04-01T07:35:36.510Z,860.63
2019-04-01T07:36:36.525Z,1057.50
2019-04-01T07:37:36.536Z,1046.25
2019-04-01T07:38:36.554Z,1153.13
2019-04-01T07:39:36.567Z,1485.00
2019-04-01T07:40:36.584Z,1625.63
2019-04-01T07:41:36.597Z,1575.00
2019-04-01T07:42:36.612Z,1501.88
2019-04-01T07:43:36.627Z,1552.50
2019-04-01T07:44:36.643Z,1726.88
2019-04-01T07:45:36.656Z,1805.63
2019-04-01T07:46:36.676Z,1816.88
2019-04-01T07:47:36.690Z,1788.75
2019-04-01T07:48:36.707Z,1721.25
2019-04-01T07:49:36.913Z,1164.38
2019-04-01T07:50:36.737Z,427.50
2019-04-01T07:51:38.484Z,270.00
2019-04-01T07:52:36.769Z,253.13
2019-04-01T07:53:36.784Z,253.13
2019-04-01T07:54:36.803Z,253.13
2019-04-01T07:55:36.819Z,253.13
2019-04-01T07:56:36.836Z,253.13
2019-04-01T07:57:36.852Z,253.13
2019-04-01T07:58:36.868Z,253.13
2019-04-01T07:59:36.888Z,253.13
2019-04-01T08:00:36.903Z,253.13
2019-04-01T08:01:36.917Z,253.13
2019-04-01T08:02:36.934Z,253.13
2019-04-01T08:03:36.946Z,253.13
2019-04-01T08:04:36.965Z,253.13
2019-04-01T08:05:36.979Z,253.13
2019-04-01T08:06:36.993Z,253.13
2019-04-01T08:07:37.007Z,253.13
2019-04-01T08:08:37.025Z,258.75
2019-04-01T08:09:37.039Z,253.13
2019-04-01T08:10:37.056Z,253.13
2019-04-01T08:11:37.084Z,253.13
2019-04-01T08:12:37.086Z,258.75
2019-04-01T08:13:37.101Z,258.75
2019-04-01T08:14:37.117Z,258.75
2019-04-01T08:15:37.132Z,258.75
2019-04-01T08:16:37.146Z,258.75
2019-04-01T08:17:37.160Z,258.75
2019-04-01T08:18:37.177Z,258.75
2019-04-01T08:19:37.190Z,258.75
2019-04-01T08:20:37.211Z,258.75
2019-04-01T08:21:37.220Z,258.75
2019-04-01T08:22:37.236Z,258.75
2019-04-01T08:23:37.250Z,258.75
2019-04-01T08:24:37.265Z,258.75
2019-04-01T08:25:37.278Z,258.75
2019-04-01T08:26:37.304Z,258.75
2019-04-01T08:27:37.310Z,258.75
2019-04-01T08:28:37.326Z,264.38
2019-04-01T08:29:37.337Z,264.38
2019-04-01T08:30:37.352Z,264.38
2019-04-01T08:31:37.369Z,264.38
2019-04-01T08:32:37.384Z,264.38
2019-04-01T08:33:37.397Z,264.38
2019-04-01T08:34:37.411Z,264.38
2019-04-01T08:35:37.430Z,264.38
2019-04-01T08:36:37.444Z,264.38
2019-04-01T08:37:39.977Z,264.38
2019-04-01T08:38:37.474Z,264.38
2019-04-01T08:39:37.488Z,264.38
2019-04-01T08:40:37.502Z,270.00
2019-04-01T08:41:37.516Z,264.38
2019-04-01T08:42:37.532Z,264.38
2019-04-01T08:43:37.635Z,270.00
2019-04-01T08:44:37.561Z,264.38
2019-04-01T08:45:37.580Z,264.38
2019-04-01T08:46:37.592Z,270.00
2019-04-01T08:47:37.608Z,270.00
2019-04-01T08:48:37.618Z,270.00
2019-04-01T08:49:37.635Z,270.00
2019-04-01T08:50:37.649Z,275.63
2019-04-01T08:51:37.665Z,270.00
2019-04-01T08:52:37.681Z,270.00
2019-04-01T08:53:37.695Z,275.63
2019-04-01T08:54:37.708Z,270.00
2019-04-01T08:55:37.726Z,270.00
2019-04-01T08:56:38.318Z,270.00
2019-04-01T08:57:37.754Z,270.00
2019-04-01T08:58:37.769Z,275.63
2019-04-01T08:59:37.783Z,270.00
2019-04-01T09:00:37.798Z,270.00
2019-04-01T09:01:37.813Z,270.00
2019-04-01T09:02:37.827Z,270.00
2019-04-01T09:03:37.845Z,270.00
2019-04-01T09:04:37.857Z,270.00
2019-04-01T09:05:37.876Z,275.63
2019-04-01T09:06:37.966Z,275.63
2019-04-01T09:07:37.904Z,275.63
2019-04-01T09:08:37.923Z,275.63
2019-04-01T09:09:37.987Z,275.63
2019-04-01T09:10:38.021Z,275.63
2019-04-01T09:11:38.643Z,275.63
2019-04-01T09:12:38.049Z,281.25
2019-04-01T09:13:38.025Z,275.63
2019-04-01T09:14:38.076Z,275.63
2019-04-01T09:15:38.067Z,275.63
2019-04-01T09:16:38.068Z,275.63
2019-04-01T09:17:40.177Z,281.25
2019-04-01T09:18:38.074Z,275.63
2019-04-01T09:19:38.088Z,281.25
2019-04-01T09:20:38.103Z,275.63
2019-04-01T09:21:38.122Z,275.63
2019-04-01T09:22:38.134Z,275.63
2019-04-01T09:23:38.149Z,275.63
2019-04-01T09:24:38.169Z,275.63
2019-04-01T09:25:38.180Z,281.25
2019-04-01T09:26:38.195Z,275.63
2019-04-01T09:27:38.212Z,275.63
2019-04-01T09:28:38.227Z,275.63
2019-04-01T09:29:38.241Z,275.63
2019-04-01T09:30:38.259Z,275.63
2019-04-01T09:31:38.273Z,275.63
2019-04-01T09:32:38.288Z,275.63
2019-04-01T09:33:38.306Z,275.63
2019-04-01T09:34:38.317Z,275.63
2019-04-01T09:35:40.847Z,275.63
2019-04-01T09:36:38.351Z,275.63
2019-04-01T09:37:38.366Z,275.63
2019-04-01T09:38:38.380Z,275.63
2019-04-01T09:39:38.397Z,281.25
2019-04-01T09:40:38.410Z,281.25
2019-04-01T09:41:38.503Z,281.25
2019-04-01T09:42:38.445Z,281.25
2019-04-01T09:43:38.459Z,281.25
2019-04-01T09:44:38.476Z,281.25
2019-04-01T09:45:38.492Z,281.25
2019-04-01T09:46:38.509Z,281.25
2019-04-01T09:47:38.522Z,281.25
2019-04-01T09:48:38.538Z,281.25
2019-04-01T09:49:38.556Z,286.88
2019-04-01T09:50:38.568Z,292.50
2019-04-01T09:51:48.414Z,286.88
2019-04-01T09:52:38.603Z,286.88
2019-04-01T09:53:38.616Z,286.88
2019-04-01T09:54:38.635Z,286.88
2019-04-01T09:55:38.647Z,286.88
2019-04-01T09:56:38.665Z,286.88
2019-04-01T09:57:38.679Z,286.88
2019-04-01T09:58:38.692Z,286.88
2019-04-01T09:59:38.710Z,286.88
2019-04-01T10:00:38.731Z,286.88
2019-04-01T10:01:38.740Z,286.88
2019-04-01T10:02:38.761Z,286.88
2019-04-01T10:03:38.771Z,286.88
2019-04-01T10:04:38.791Z,286.88
2019-04-01T10:05:38.807Z,286.88
2019-04-01T10:06:38.821Z,286.88
2019-04-01T10:07:38.885Z,286.88
2019-04-01T10:08:42.347Z,286.88
2019-04-01T10:09:38.870Z,286.88
2019-04-01T10:10:38.895Z,286.88
2019-04-01T10:11:38.911Z,286.88
2019-04-01T10:12:38.916Z,286.88
2019-04-01T10:13:38.929Z,286.88
2019-04-01T10:14:38.948Z,286.88
2019-04-01T10:15:38.962Z,286.88
2019-04-01T10:16:38.979Z,286.88
2019-04-01T10:17:38.996Z,286.88
2019-04-01T10:18:39.012Z,286.88
2019-04-01T10:19:39.027Z,286.88
2019-04-01T10:20:39.045Z,286.88
2019-04-01T10:21:39.062Z,286.88
2019-04-01T10:22:39.089Z,286.88
2019-04-01T10:23:39.092Z,286.88
2019-04-01T10:24:39.152Z,286.88
2019-04-01T10:25:39.123Z,286.88
2019-04-01T10:26:39.141Z,292.50
2019-04-01T10:27:39.156Z,292.50
2019-04-01T10:28:39.173Z,286.88
2019-04-01T10:29:39.189Z,292.50
2019-04-01T10:30:39.203Z,292.50
2019-04-01T10:31:39.231Z,292.50
2019-04-01T10:32:39.237Z,292.50
2019-04-01T10:33:39.253Z,292.50
2019-04-01T10:34:39.270Z,292.50
2019-04-01T10:35:39.288Z,292.50
2019-04-01T10:36:39.308Z,292.50
2019-04-01T10:37:39.323Z,292.50
2019-04-01T10:38:39.335Z,298.13
2019-04-01T10:39:39.362Z,298.13
2019-04-01T10:40:39.375Z,298.13
2019-04-01T10:41:39.394Z,298.13
2019-04-01T10:42:39.403Z,303.75
2019-04-01T10:43:39.418Z,309.38
2019-04-01T10:44:39.435Z,405.00
2019-04-01T10:45:39.452Z,1018.13
2019-04-01T10:46:40.814Z,2716.88
2019-04-01T10:47:39.535Z,3898.13
2019-04-01T10:48:39.546Z,2846.25
2019-04-01T10:49:39.579Z,1912.50
2019-04-01T10:50:39.585Z,2919.38
2019-04-01T10:51:39.633Z,4291.88
2019-04-01T10:52:39.590Z,3909.38
2019-04-01T10:53:39.625Z,2317.50
2019-04-01T10:54:39.668Z,2289.38
2019-04-01T10:55:39.672Z,3954.38
2019-04-01T10:56:39.673Z,4066.88
2019-04-01T10:57:41.792Z,1749.38
2019-04-01T10:58:39.684Z,433.13
2019-04-01T10:59:39.706Z,545.63
2019-04-01T11:00:39.725Z,472.50
2019-04-01T11:01:39.768Z,309.38
2019-04-01T11:02:39.763Z,298.13
2019-04-01T11:03:39.807Z,298.13
2019-04-01T11:04:39.872Z,298.13
2019-04-01T11:05:39.919Z,298.13
2019-04-01T11:06:39.872Z,298.13
2019-04-01T11:07:39.932Z,298.13
2019-04-01T11:08:40.017Z,298.13
2019-04-01T11:09:39.934Z,298.13
2019-04-01T11:10:39.935Z,298.13
2019-04-01T11:11:39.946Z,298.13
2019-04-01T11:12:39.960Z,298.13
2019-04-01T11:13:39.974Z,303.75
2019-04-01T11:14:39.994Z,298.13
2019-04-01T11:15:40.016Z,298.13
2019-04-01T11:16:40.032Z,298.13
2019-04-01T11:17:40.051Z,298.13
2019-04-01T11:18:40.755Z,298.13
2019-04-01T11:19:40.087Z,298.13
2019-04-01T11:20:40.107Z,298.13
2019-04-01T11:21:40.134Z,298.13
2019-04-01T11:22:40.142Z,298.13
2019-04-01T11:23:40.158Z,298.13
2019-04-01T11:24:40.176Z,298.13
2019-04-01T11:25:40.193Z,298.13
2019-04-01T11:26:40.212Z,298.13
2019-04-01T11:27:40.228Z,298.13
2019-04-01T11:28:40.248Z,298.13
2019-04-01T11:29:40.266Z,298.13
2019-04-01T11:30:40.313Z,298.13
2019-04-01T11:31:40.315Z,298.13
2019-04-01T11:32:40.451Z,298.13
2019-04-01T11:33:40.363Z,298.13
2019-04-01T11:34:40.380Z,298.13
2019-04-01T11:35:40.379Z,298.13
2019-04-01T11:36:40.387Z,298.13
2019-04-01T11:37:41.486Z,298.13
2019-04-01T11:38:40.463Z,298.13
2019-04-01T11:39:40.441Z,298.13
2019-04-01T11:40:40.505Z,309.38
2019-04-01T11:41:40.480Z,337.50
2019-04-01T11:42:40.967Z,1012.50
2019-04-01T11:43:40.523Z,2300.63
2019-04-01T11:44:40.533Z,2323.13
2019-04-01T11:45:40.577Z,1293.75
2019-04-01T11:46:40.563Z,528.75
2019-04-01T11:47:40.608Z,315.00
2019-04-01T11:48:40.637Z,309.38
2019-04-01T11:49:40.668Z,303.75
2019-04-01T11:50:40.647Z,298.13
2019-04-01T11:51:40.670Z,298.13
2019-04-01T11:52:40.686Z,298.13
2019-04-01T11:53:40.689Z,298.13
2019-04-01T11:54:40.709Z,298.13
2019-04-01T11:55:41.497Z,298.13
2019-04-01T11:56:41.461Z,298.13
2019-04-01T11:57:41.072Z,298.13
2019-04-01T11:58:40.781Z,298.13
2019-04-01T11:59:40.800Z,298.13
2019-04-01T12:00:40.820Z,298.13
2019-04-01T12:01:40.841Z,298.13
2019-04-01T12:02:40.854Z,298.13
2019-04-01T12:03:40.872Z,298.13
2019-04-01T12:04:40.891Z,298.13
2019-04-01T12:05:40.908Z,298.13
2019-04-01T12:06:40.925Z,298.13
2019-04-01T12:07:40.946Z,298.13
2019-04-01T12:08:40.961Z,292.50
2019-04-01T12:09:40.981Z,292.50
2019-04-01T12:10:40.997Z,292.50
2019-04-01T12:11:41.018Z,292.50
2019-04-01T12:12:41.034Z,292.50
2019-04-01T12:13:41.053Z,292.50
2019-04-01T12:14:41.071Z,286.88
2019-04-01T12:15:41.089Z,286.88
2019-04-01T12:16:41.109Z,286.88
2019-04-01T12:17:41.742Z,286.88
2019-04-01T12:18:41.146Z,286.88
2019-04-01T12:19:41.162Z,286.88
2019-04-01T12:20:41.179Z,286.88
2019-04-01T12:21:41.530Z,286.88
2019-04-01T12:22:45.221Z,286.88
2019-04-01T12:23:41.231Z,286.88
2019-04-01T12:24:41.250Z,286.88
2019-04-01T12:25:41.286Z,286.88
2019-04-01T12:26:41.287Z,286.88
2019-04-01T12:27:41.303Z,286.88
2019-04-01T12:28:41.324Z,281.25
2019-04-01T12:29:41.338Z,286.88
2019-04-01T12:30:41.358Z,281.25
2019-04-01T12:31:41.375Z,281.25
2019-04-01T12:32:41.390Z,281.25
2019-04-01T12:33:41.410Z,281.25
2019-04-01T12:34:42.278Z,281.25
2019-04-01T12:35:41.447Z,281.25
2019-04-01T12:36:41.464Z,281.25
2019-04-01T12:37:41.482Z,286.88
2019-04-01T12:38:41.570Z,281.25
2019-04-01T12:39:41.518Z,281.25
2019-04-01T12:40:41.536Z,281.25
2019-04-01T12:41:41.552Z,281.25
2019-04-01T12:42:41.571Z,281.25
2019-04-01T12:43:41.590Z,281.25
2019-04-01T12:44:41.788Z,275.63
2019-04-01T12:45:41.645Z,275.63
2019-04-01T12:46:41.643Z,275.63